Reno (UNR), Valley Road, Nevada Weather observations

Data are for observation ending at time listed.
 Day   Time    Ave.   Ave.  Ave.  Vector   Max.    Total    Solar   Rl      Baro.   Ave.  
  of    of     Air    Rel.  Wind   Wind    Wind   Precip.   Rad.    in      Pres.   Soil  
Year   Day     Temp.  Hum.  Speed  Dir.    Gust                                     Temp. 
2016   (PST)    F      %     mph   deg.    mph      in.     W/m2    W/m2     mb.     F   
-----------------------------------------------------------------------------------------
 147    0:40   49.1    71    1.9   228      3.6     0.00       0     295    859.0   62.0
 147    0:50   48.3    73    1.7   350      4.1     0.00       0     293    859.0   61.8
 147    1:00   47.6    75    1.2   276      5.0     0.00       0     295    859.1   61.7
 147    1:10   46.9    77    1.4   359      4.6     0.00       0     295    859.1   61.6
 147    1:20   47.2    77    1.9   278      4.3     0.00       0     291    859.1   61.5
 147    1:30   47.0    77    1.6   305      3.6     0.00       0     289    859.2   61.4
 147    1:40   46.2    79    0.7   282      2.0     0.00       0     293    859.3   61.2
 147    1:50   46.1    80    1.6   353      4.1     0.00       0     290    859.4   61.1
 147    2:00   45.6    80    1.6   324      4.5     0.00       0     290    859.4   61.0
 147    2:10   44.8    83    0.2     4      2.3     0.00       0     288    859.5   60.9
 147    2:20   44.5    84    1.8   293      3.7     0.00       0     286    859.6   60.7
 147    2:30   44.5    84    3.1   272      6.2     0.00       0     288    859.6   60.6
 147    2:40   45.4    81    2.9   271      4.6     0.00       0     289    859.7   60.5
 147    2:50   44.9    82    2.8   302      4.1     0.00       0     290    859.6   60.4
 147    3:00   44.4    83    2.4   262      3.9     0.00       0     290    859.5   60.3
 147    3:10   44.0    84    0.5   348      3.3     0.00       0     295    859.6   60.1
 147    3:20   43.9    85    0.6   274      3.1     0.00       0     300    859.6   60.0
 147    3:30   44.1    85    1.0     1      3.3     0.00       0     307    859.6   59.9
 147    3:40   44.1    85    0.6   294      2.7     0.00       0     317    859.6   59.8
 147    3:50   44.0    86    0.3   295      1.5     0.00       0     321    859.7   59.7
 147    4:00   44.4    85    0.0     0      0.0     0.00       0     330    859.6   59.6
 147    4:10   44.4    86    0.5   315      1.7     0.00       0     330    859.7   59.5
 147    4:20   44.8    86    0.5   324      1.8     0.00       0     331    859.7   59.3
 147    4:30   45.2    85    0.7   323      2.4     0.00       1     340    859.7   59.2
 147    4:40   45.7    84    0.9   312      2.6     0.00       3     335    859.7   59.1
 147    4:50   46.0    84    0.8   313      2.5     0.00       8     334    859.7   59.1
 147    5:00   46.1    84    0.9   353      3.0     0.00      18     334    859.7   59.0
 147    5:10   46.3    84    0.9     8      2.2     0.00      29     330    859.7   58.9
 147    5:20   48.0    82    0.0     0      0.0     0.00      84     333    859.7   58.8
 147    5:30   51.0    74    0.1    24      1.4     0.00      94     334    859.6   58.8
 147    5:40   51.2    73    0.0     0      0.0     0.00     111     319    859.5   58.7
 147    5:50   51.6    72    0.1    37      1.1     0.00     164     304    859.3   58.6
 147    6:00   52.3    69    2.7    83      4.8     0.00     196     301    859.1   58.6
 147    6:10   51.8    69    2.8    96      4.8     0.00     225     299    858.9   58.5
 147    6:20   53.1    65    1.7    82      4.1     0.00     259     300    858.8   58.5
 147    6:30   54.8    62    1.4   131      3.5     0.00     291     302    858.6   58.5
 147    6:40   55.7    60    1.3   142      4.1     0.00     323     307    858.4   58.5
 147    6:50   55.9    60    2.6   164      4.8     0.00     356     310    858.2   58.5
 147    7:00   56.7    58    1.6   168      3.4     0.00     392     310    857.9   58.5
 147    7:10   57.4    57    1.7   121      3.7     0.00     425     313    857.8   58.5
 147    7:20   57.6    58    2.4   144      4.2     0.00     459     316    857.8   58.6
 147    7:30   59.1    55    1.7   145      4.0     0.00     493     319    857.7   58.7
 147    7:40   59.0    55    1.7    70      4.1     0.00     527     322    857.5   58.7
 147    7:50   59.0    54    2.1    72      6.0     0.00     558     324    857.3   58.9
 147    8:00   58.8    55    1.8    15      3.9     0.00     589     325    857.2   59.0
 147    8:10   60.8    52    3.0   154      6.1     0.00     621     328    857.1   59.1
 147    8:20   59.9    53    4.4   133      8.2     0.00     656     330    857.0   59.3
 147    8:30   60.1    53    4.2   134     11.0     0.00     689     329    856.9   59.5
 147    8:40   61.6    48    3.0    80      7.5     0.00     726     333    856.8   59.7
 147    8:50   61.7    45    5.0   180     11.5     0.00     764     336    856.6   59.9
 147    9:00   63.6    43    3.5   165     10.1     0.00     813     340    856.4   60.2
 147    9:10   63.9    42    5.2   163     10.1     0.00     850     347    856.3   60.4
 147    9:20   63.9    41    2.9    48      8.7     0.00     907     352    856.0   60.7
 147    9:30   64.8    42    4.9   100     10.5     0.00     689     372    855.8   60.9
 147    9:40   61.7    35    6.9   345     12.5     0.00     317     375    855.6   61.1
 147    9:50   60.9    35    5.8   354     10.5     0.00     208     376    855.6   61.3
 147   10:00   61.1    34    6.1   345     11.2     0.00     224     375    855.7   61.4
 147   10:10   61.1    34    5.7   344      9.4     0.00     265     375    855.8   61.6
 147   10:20   61.3    35    5.0     5     11.4     0.00     320     374    855.8   61.7
 147   10:30   62.2    35    3.7    21      6.2     0.00     436     371    855.8   61.9
 147   10:40   63.7    32    4.4   285     10.4     0.00     854     371    855.8   62.0
 147   10:50   63.5    32    4.6   328      8.8     0.00     732     358    855.8   62.1
 147   11:00   63.1    32    3.4   324      7.0     0.00     588     348    855.6   62.2
 147   11:10   65.7    30    4.2   332      9.3     0.00    1149     357    855.5   62.3
 147   11:20   66.7    29    3.5    35      9.8     0.00    1183     364    855.3   62.4
 147   11:30   67.7    28    4.0   114      8.1     0.00    1145     375    855.0   62.5
 147   11:40   68.6    27    4.8   210      9.4     0.00     745     388    854.7   62.7
 147   11:50   66.3    29    4.8   289      8.3     0.00     409     383    854.5   62.9
 147   12:00   65.2    30    4.7   294      8.5     0.00     349     377    854.5   63.2
 147   12:10   65.3    30    2.8   156      6.8     0.00     598     367    854.5   63.5
 147   12:20   68.7    27    3.2   262      9.4     0.00    1202     368    854.4   63.8
 147   12:30   69.2    26    4.3   304      9.6     0.00    1142     373    854.2   64.1
 147   12:40   68.8    25    3.1   170     10.5     0.00     740     378    854.0   64.3
 147   12:50   68.2    26    4.6   292     13.1     0.00     924     380    853.8   64.6
 147   13:00   66.5    28    5.0   318     10.7     0.00     401     376    853.5   64.8
 147   13:10   67.2    28    5.2   213      9.8     0.00     358     372    853.5   65.0
 147   13:20   66.5    30    5.0   338      9.2     0.00     555     362    853.5   65.3
 147   13:30   69.5    27    2.2   323      4.8     0.00    1182     373    853.4   65.5
 147   13:40   70.7    26    6.4   278     12.6     0.00    1102     378    853.2   65.7
 147   13:50   69.4    27    5.3   308     11.8     0.00    1072     372    852.9   65.8
 147   14:00   70.1    26    4.6   308     14.2     0.00     718     378    852.7   66.0
 147   14:10   69.9    26    6.2   276     14.0     0.00    1084     383    852.5   66.2
 147   14:20   71.1    26    5.5   284     11.8     0.00    1010     378    852.3   66.3
 147   14:30   69.7    27    4.3   255     11.8     0.00     492     370    852.1   66.5
 147   14:40   68.8    28    7.4   317     15.4     0.00     454     366    852.0   66.8
 147   14:50   68.0    29    3.7   315      9.5     0.00     357     358    852.0   67.0
 147   15:00   67.7    29    3.3   334     12.7     0.00     189     363    852.1   67.2
 147   15:10   68.7    27    0.9    42      3.3     0.00     512     369    852.1   67.4
 147   15:20   69.7    26    6.3   328     10.7     0.00     303     364    852.1   67.6
 147   15:30   68.4    27    6.2   343      9.5     0.00     560     361    852.1   67.7
 147   15:40   70.9    25    6.3   324     16.2     0.00     759     366    852.0   67.8
 147   15:50   69.9    25    6.8   308     12.2     0.00     342     359    852.0   67.9
 147   16:00   69.3    25    5.8   301     10.2     0.00     566     355    851.9   68.0
 147   16:10   70.3    26    9.0   315     16.9     0.00     461     355    851.8   68.1
 147   16:20   69.9    27    6.8   321     12.0     0.00     593     355    851.8   68.2
 147   16:30   70.7    26    7.8   326     12.6     0.00     576     367    851.8   68.2
 147   16:40   70.2    26    5.9   292     12.2     0.00     288     363    851.7   68.3
 147   16:50   70.1    27    6.7   314     13.0     0.00     440     363    851.6   68.4
 147   17:00   69.0    27    6.1   317     11.8     0.00     173     348    851.5   68.5
 147   17:10   68.4    29    7.6   338     14.1     0.00     231     350    851.5   68.5
 147   17:20   67.9    29    7.0   342     14.4     0.00     152     360    851.6   68.6
 147   17:30   68.0    30    4.7   330      9.0     0.00     186     364    851.7   68.6
 147   17:40   69.2    29    4.9   333      9.0     0.00     210     368    851.8   68.6
 147   17:50   67.8    30    7.5   347     12.1     0.00     139     367    851.8   68.6
 147   18:00   68.5    30    6.3   339     11.2     0.00     193     364    851.8   68.6
 147   18:10   68.8    30    6.8   322     11.3     0.00     182     358    851.9   68.6
 147   18:20   68.1    31    7.0   329     12.1     0.00      96     361    851.9   68.6
 147   18:30   67.1    32    6.7   320     12.1     0.00      60     364    852.0   68.5
 147   18:40   67.0    33    5.7   296     10.6     0.00      57     376    852.2   68.5
 147   18:50   66.8    33    6.0   292     10.7     0.00      56     376    852.5   68.4
 147   19:00   66.3    34    4.8   293      8.2     0.00      31     368    852.6   68.4
 147   19:10   65.2    41    7.8   282     13.0     0.00      16     363    852.8   68.3
 147   19:20   64.3    45    8.2   268     17.4     0.00       5     344    853.0   68.2
 147   19:30   63.6    47    7.9   282     16.2     0.00       2     336    853.3   68.1
 147   19:40   62.7    49    7.1   309     12.4     0.00       0     336    853.6   68.1
 147   19:50   61.7    51    7.8   311     14.2     0.00       0     333    853.8   68.0
 147   20:00   61.7    51    5.8   293     12.0     0.00       0     331    854.0   67.9
 147   20:10   61.4    52    7.6   283     15.4     0.00       0     330    854.1   67.8
 147   20:20   61.2    52    8.3   273     19.8     0.00       0     330    854.3   67.7
 147   20:30   61.1    53    8.8   273     17.3     0.00       0     330    854.4   67.6
 147   20:40   60.6    54    7.4   281     13.0     0.00       0     328    854.6   67.4
 147   20:50   60.0    55    5.6   300      9.9     0.00       0     326    854.8   67.3
 147   21:00   59.3    57    6.1   298     10.6     0.00       0     323    855.1   67.2
 147   21:10   59.7    56    7.5   288     13.6     0.00       0     324    855.3   67.1
 147   21:20   59.5    56    6.2   290     11.5     0.00       0     324    855.3   66.9
 147   21:30   59.4    56    6.7   291     12.5     0.00       0     324    855.4   66.8
 147   21:40   59.0    57    5.3   284     11.2     0.00       0     329    855.4   66.7
 147   21:50   59.1    56    6.2   279     11.4     0.00       0     341    855.4   66.6
 147   22:00   58.8    57    3.8   292     10.7     0.00       0     346    855.5   66.4
 147   22:10   58.7    56    4.2   280     10.9     0.00       0     349    855.5   66.3
 147   22:20   58.6    56    2.2   293      5.6     0.00       0     344    855.7   66.2
 147   22:30   58.2    57    3.0   307      6.3     0.00       0     337    855.7   66.1
 147   22:40   57.9    57    4.5   327      9.1     0.00       0     329    855.8   65.9
 147   22:50   58.5    54    6.5   293     12.4     0.00       0     327    855.8   65.8
 147   23:00   58.9    54    5.8   298      9.9     0.00       0     329    855.8   65.7
 147   23:10   58.7    54    4.6   286     10.1     0.00       0     329    855.8   65.6
 147   23:20   58.5    54    3.8   294      7.8     0.00       0     327    855.9   65.5
 147   23:30   57.7    55    3.6   311      8.3     0.00       0     324    856.0   65.4
 147   23:40   57.3    55    4.4   300      8.7     0.00       0     323    856.1   65.2
 147   23:50   57.6    55    4.5   311      8.2     0.00       0     323    856.2   65.1
 148    0:00   56.8    56    3.1   331      5.1     0.00       0     320    856.2   65.0
 148    0:10   55.6    59    1.2   347      3.4     0.00       0     316    856.2   64.9
 148    0:20   55.0    60    1.2   308      3.9     0.00       0     312    856.3   64.8
 148    0:30   54.7    60    3.6   310      5.6     0.00       0     311    856.4   64.7

Return to Reno (UNR), Nevada graphs page.


Western Regional Climate Center,wrcc@dri.edu